Terminal Aerodrome Forecast
Issued by NWS

Home | Current Version | Previous Version | Text Only | Print | Product List | Glossary On
Versions: 1 2 3 4 5 6 7 8 9 10 11 12 13 14 15 16 17 18 19 20 21 22 23 24 25 26 27 28 29 30 31 32 33 34 35 36 37 38
000
FTUS41 KBOX 141519 AAC
TAFFMH
TAF AMD
KFMH 141519Z 1415/1512 32008KT 6SM -SN FEW025 OVC060
     FM141600 35008KT P6SM OVC040
     FM141700 33009KT P6SM OVC060
     FM142200 30010G20KT P6SM FEW250
     FM150000 30011G21KT P6SM SKC
     FM150300 30011KT P6SM SKC
     FM150800 30009KT P6SM FEW250=

USA.gov is the U.S. government's official web portal to all federal, state and local government web resources and services.